Time;durP1;ratioP1;P1;durP2;ratioP2;P2;SDS_P1;SDS_P2;PMS_P1;PMS_P2;Temp;Humidity;BMP_temperature;BMP_pressure;BME280_temperature;BME280_humidity;BME280_pressure;Samples;Min_cycle;Max_cycle;Signal;HPM_P1;HPM_P2
2022/04/20 00:02:04;;;;;;;8.27;4.85;;;;;;;;;;5077696;28;20024;-76
2022/04/20 00:04:30;;;;;;;8.00;4.43;;;;;;;;;;5069072;28;20111;-75
2022/04/20 00:06:56;;;;;;;7.45;4.88;;;;;;;;;;5066466;28;20024;-76
2022/04/20 00:09:22;;;;;;;6.32;4.75;;;;;;;;;;5063030;28;20043;-76
2022/04/20 00:11:49;;;;;;;9.20;4.85;;;;;;;;;;5068380;28;20067;-75
2022/04/20 00:14:15;;;;;;;6.70;4.55;;;;;;;;;;5063244;28;20044;-75
2022/04/20 00:16:41;;;;;;;6.70;4.75;;;;;;;;;;5065244;28;20667;-76
2022/04/20 00:19:07;;;;;;;7.35;4.38;;;;;;;;;;5066637;28;20043;-76
2022/04/20 00:21:33;;;;;;;6.05;4.38;;;;;;;;;;5067248;28;20182;-75
2022/04/20 00:23:59;;;;;;;10.20;5.22;;;;;;;;;;5064476;28;20029;-75
2022/04/20 00:26:25;;;;;;;6.07;4.88;;;;;;;;;;5061712;28;20033;-75
2022/04/20 00:28:51;;;;;;;10.55;5.30;;;;;;;;;;5063660;28;20482;-75
2022/04/20 00:31:19;;;;;;;9.38;5.25;;;;;;;;;;5065432;28;20035;-75
2022/04/20 00:33:45;;;;;;;10.63;5.40;;;;;;;;;;5065592;28;20029;-75
2022/04/20 00:36:11;;;;;;;6.63;5.50;;;;;;;;;;5067311;28;20066;-75
2022/04/20 00:38:37;;;;;;;9.88;5.07;;;;;;;;;;5066455;28;20035;-74
2022/04/20 00:41:03;;;;;;;22.55;6.03;;;;;;;;;;5064098;28;20018;-74
2022/04/20 00:43:29;;;;;;;6.65;5.07;;;;;;;;;;5065152;28;20402;-75
2022/04/20 00:45:57;;;;;;;7.63;5.18;;;;;;;;;;5070010;28;20033;-75
2022/04/20 00:48:23;;;;;;;7.38;5.03;;;;;;;;;;5066189;28;20063;-75
2022/04/20 00:50:49;;;;;;;7.93;4.82;;;;;;;;;;5069344;28;20036;-77
2022/04/20 00:53:15;;;;;;;6.95;4.97;;;;;;;;;;5064563;28;20024;-75
2022/04/20 00:55:41;;;;;;;8.63;4.60;;;;;;;;;;5066870;28;20124;-76
2022/04/20 00:58:07;;;;;;;7.68;4.63;;;;;;;;;;5064484;28;20475;-75
2022/04/20 01:00:33;;;;;;;5.10;4.53;;;;;;;;;;5066387;28;20035;-75
2022/04/20 01:03:00;;;;;;;5.60;4.95;;;;;;;;;;5071517;28;20111;-75
2022/04/20 01:05:26;;;;;;;7.88;6.50;;;;;;;;;;5069480;28;20029;-75
2022/04/20 01:07:52;;;;;;;7.55;4.88;;;;;;;;;;5065556;28;20119;-75
2022/04/20 01:10:18;;;;;;;7.60;4.88;;;;;;;;;;5065075;28;20060;-75
2022/04/20 01:12:45;;;;;;;7.35;5.38;;;;;;;;;;5067206;28;20071;-74
2022/04/20 01:15:15;;;;;;;8.38;6.55;;;;;;;;;;5065928;28;20098;-74
2022/04/20 01:17:42;;;;;;;7.45;5.25;;;;;;;;;;5071853;28;20035;-75
2022/04/20 01:20:15;;;;;;;11.25;5.80;;;;;;;;;;5069368;28;20078;-75
2022/04/20 01:22:42;;;;;;;6.75;5.18;;;;;;;;;;5065510;28;20400;-75
2022/04/20 01:25:08;;;;;;;9.25;5.38;;;;;;;;;;5069318;28;20117;-76
2022/04/20 01:27:36;;;;;;;7.28;4.93;;;;;;;;;;5070322;28;20093;-75
2022/04/20 01:30:02;;;;;;;8.30;5.30;;;;;;;;;;5067555;28;20509;-75
2022/04/20 01:32:28;;;;;;;11.50;5.40;;;;;;;;;;5072313;28;20086;-74
2022/04/20 01:34:54;;;;;;;8.18;5.70;;;;;;;;;;5070442;28;20488;-74
2022/04/20 01:37:21;;;;;;;8.15;5.28;;;;;;;;;;5069797;28;20032;-75
2022/04/20 01:39:47;;;;;;;6.75;5.22;;;;;;;;;;5068555;28;20031;-74
2022/04/20 01:42:13;;;;;;;9.25;6.15;;;;;;;;;;5083387;28;20515;-74
2022/04/20 01:44:39;;;;;;;11.20;6.63;;;;;;;;;;5070456;28;20023;-74
2022/04/20 01:47:06;;;;;;;7.88;5.38;;;;;;;;;;5082713;28;20089;-74
2022/04/20 01:49:32;;;;;;;8.43;5.75;;;;;;;;;;5070084;28;20517;-75
2022/04/20 01:51:58;;;;;;;7.13;5.70;;;;;;;;;;5070204;28;20017;-74
2022/04/20 01:54:24;;;;;;;6.75;5.32;;;;;;;;;;5069787;28;20036;-74
2022/04/20 01:56:51;;;;;;;8.30;5.75;;;;;;;;;;5065478;28;20537;-74
2022/04/20 01:59:17;;;;;;;7.18;6.00;;;;;;;;;;5069969;28;20027;-75
2022/04/20 02:04:28;;;;;;;12.93;6.50;;;;;;;;;;5068376;28;20540;-74
2022/04/20 02:06:54;;;;;;;12.15;7.85;;;;;;;;;;5068203;28;20505;-74
2022/04/20 02:09:21;;;;;;;13.23;6.97;;;;;;;;;;5068782;28;20185;-74
2022/04/20 02:11:47;;;;;;;9.55;6.75;;;;;;;;;;5069738;28;20040;-74
2022/04/20 02:14:13;;;;;;;11.43;6.75;;;;;;;;;;5072347;28;20114;-74
2022/04/20 02:16:40;;;;;;;10.80;7.00;;;;;;;;;;5067426;28;20028;-74
2022/04/20 02:19:06;;;;;;;10.27;6.50;;;;;;;;;;5068643;28;20027;-74
2022/04/20 02:21:32;;;;;;;9.35;6.28;;;;;;;;;;5066481;28;20032;-75
2022/04/20 02:23:58;;;;;;;11.10;5.82;;;;;;;;;;5068286;28;20071;-74
2022/04/20 02:26:24;;;;;;;8.65;5.88;;;;;;;;;;5069358;28;20032;-75
2022/04/20 02:28:50;;;;;;;8.95;6.10;;;;;;;;;;5066829;28;20063;-74
2022/04/20 02:31:16;;;;;;;9.07;5.47;;;;;;;;;;5068406;28;20071;-75
2022/04/20 02:33:43;;;;;;;10.88;5.65;;;;;;;;;;5067947;28;20032;-74
2022/04/20 02:36:09;;;;;;;10.25;5.07;;;;;;;;;;5068106;28;20062;-75
2022/04/20 02:38:35;;;;;;;8.98;5.97;;;;;;;;;;5067831;28;20032;-74
2022/04/20 02:41:02;;;;;;;9.23;5.93;;;;;;;;;;5067628;28;20848;-74
2022/04/20 02:43:28;;;;;;;6.15;5.55;;;;;;;;;;5067659;28;20033;-74
2022/04/20 02:45:58;;;;;;;12.45;6.05;;;;;;;;;;5068652;28;20564;-74
2022/04/20 02:48:24;;;;;;;6.95;5.70;;;;;;;;;;5068059;28;20040;-73
2022/04/20 02:50:50;;;;;;;8.23;5.68;;;;;;;;;;5067418;28;20024;-74
2022/04/20 02:53:16;;;;;;;7.55;6.13;;;;;;;;;;5068696;28;20086;-74
2022/04/20 02:55:42;;;;;;;9.80;5.88;;;;;;;;;;5064327;28;20033;-74
2022/04/20 02:58:09;;;;;;;12.82;5.70;;;;;;;;;;5068858;28;20024;-74
2022/04/20 03:00:35;;;;;;;9.73;6.20;;;;;;;;;;5072357;28;20059;-75
2022/04/20 03:03:01;;;;;;;8.18;6.00;;;;;;;;;;5067545;28;20625;-75
2022/04/20 03:05:27;;;;;;;8.40;6.05;;;;;;;;;;5067129;28;20032;-74
2022/04/20 03:07:53;;;;;;;6.97;5.75;;;;;;;;;;5069035;28;20028;-75
2022/04/20 03:10:19;;;;;;;10.30;5.47;;;;;;;;;;5069901;28;20036;-75
2022/04/20 03:12:45;;;;;;;8.00;5.82;;;;;;;;;;5068127;28;20575;-76
2022/04/20 03:15:11;;;;;;;9.68;5.97;;;;;;;;;;5074295;28;20571;-75
2022/04/20 03:17:38;;;;;;;7.93;5.28;;;;;;;;;;5068605;28;20024;-76
2022/04/20 03:20:04;;;;;;;7.68;5.72;;;;;;;;;;5068455;28;20024;-76
2022/04/20 03:22:30;;;;;;;8.82;5.78;;;;;;;;;;5066050;28;20024;-74
2022/04/20 03:24:56;;;;;;;12.43;5.82;;;;;;;;;;5066879;28;20027;-75
2022/04/20 03:27:22;;;;;;;11.88;6.95;;;;;;;;;;5068492;28;20835;-75
2022/04/20 03:29:48;;;;;;;10.48;6.05;;;;;;;;;;5065389;28;20021;-75
2022/04/20 03:32:15;;;;;;;10.07;6.80;;;;;;;;;;5064467;28;20033;-75
2022/04/20 03:34:42;;;;;;;11.50;6.45;;;;;;;;;;5067303;28;20381;-75
2022/04/20 03:37:12;;;;;;;8.30;6.78;;;;;;;;;;5067917;28;20557;-75
2022/04/20 03:39:38;;;;;;;11.40;6.18;;;;;;;;;;5071063;28;20021;-75
2022/04/20 03:42:04;;;;;;;9.15;6.57;;;;;;;;;;5062619;28;20033;-76
2022/04/20 03:44:31;;;;;;;11.23;6.07;;;;;;;;;;5067721;28;20064;-75
2022/04/20 03:46:57;;;;;;;11.35;7.95;;;;;;;;;;5065877;28;20427;-75
2022/04/20 03:49:23;;;;;;;10.10;6.80;;;;;;;;;;5061208;28;20101;-75
2022/04/20 03:51:49;;;;;;;8.13;6.43;;;;;;;;;;5068785;28;20020;-75
2022/04/20 03:54:16;;;;;;;11.63;6.55;;;;;;;;;;5065286;28;20032;-75
2022/04/20 03:59:27;;;;;;;8.10;6.47;;;;;;;;;;5066907;28;20547;-75
2022/04/20 04:01:53;;;;;;;9.55;6.93;;;;;;;;;;5064630;28;20033;-75
2022/04/20 04:04:19;;;;;;;9.45;7.72;;;;;;;;;;5066897;28;20169;-75
2022/04/20 04:06:45;;;;;;;9.55;6.60;;;;;;;;;;5065901;28;20506;-74
2022/04/20 04:09:12;;;;;;;9.15;6.85;;;;;;;;;;5066320;28;20024;-74
2022/04/20 04:11:38;;;;;;;8.85;7.10;;;;;;;;;;5066297;28;20031;-76
2022/04/20 04:14:04;;;;;;;9.52;6.43;;;;;;;;;;5065631;28;20127;-76
2022/04/20 04:16:30;;;;;;;10.88;6.45;;;;;;;;;;5067972;28;20035;-76
2022/04/20 04:18:56;;;;;;;11.30;6.45;;;;;;;;;;5065248;28;20029;-75
2022/04/20 04:21:22;;;;;;;10.38;6.55;;;;;;;;;;5068837;28;20033;-75
2022/04/20 04:23:48;;;;;;;10.60;5.90;;;;;;;;;;5069707;28;20374;-76
2022/04/20 04:26:14;;;;;;;7.43;6.10;;;;;;;;;;5071889;28;20035;-75
2022/04/20 04:28:40;;;;;;;7.63;5.47;;;;;;;;;;5068520;28;20034;-75
2022/04/20 04:31:07;;;;;;;7.85;5.60;;;;;;;;;;5064324;28;20157;-75
2022/04/20 04:33:34;;;;;;;8.05;5.30;;;;;;;;;;5067985;28;20170;-75
2022/04/20 04:36:01;;;;;;;6.82;5.90;;;;;;;;;;5065912;28;20040;-75
2022/04/20 04:38:27;;;;;;;6.72;5.65;;;;;;;;;;5066752;28;20438;-75
2022/04/20 04:40:53;;;;;;;7.57;5.80;;;;;;;;;;5067119;28;20424;-74
2022/04/20 04:43:19;;;;;;;11.52;7.10;;;;;;;;;;5069483;28;20108;-75
2022/04/20 04:48:36;;;;;;;11.45;6.95;;;;;;;;;;5068051;28;20047;-75
2022/04/20 04:51:03;;;;;;;17.45;7.47;;;;;;;;;;5072395;28;20033;-75
2022/04/20 04:53:29;;;;;;;17.65;7.90;;;;;;;;;;5069419;28;20035;-75
2022/04/20 04:55:55;;;;;;;12.13;6.93;;;;;;;;;;5070929;28;20059;-75
2022/04/20 04:58:21;;;;;;;12.02;6.70;;;;;;;;;;5068541;28;20246;-75
2022/04/20 05:00:47;;;;;;;12.85;7.07;;;;;;;;;;5069311;28;20024;-76
2022/04/20 05:03:17;;;;;;;13.10;8.32;;;;;;;;;;5069884;28;20025;-75
2022/04/20 05:05:46;;;;;;;13.45;7.50;;;;;;;;;;5068870;28;20375;-75
2022/04/20 05:08:12;;;;;;;13.95;8.52;;;;;;;;;;5067099;28;20028;-75
2022/04/20 05:10:38;;;;;;;16.80;7.88;;;;;;;;;;5069257;28;20028;-75
2022/04/20 05:13:05;;;;;;;12.07;7.78;;;;;;;;;;5070695;28;20467;-74
2022/04/20 05:15:31;;;;;;;14.90;8.23;;;;;;;;;;5070011;28;20043;-75
2022/04/20 05:17:57;;;;;;;13.93;7.60;;;;;;;;;;5070621;28;20383;-75
2022/04/20 05:20:23;;;;;;;13.13;6.93;;;;;;;;;;5069113;28;20029;-75
2022/04/20 05:22:49;;;;;;;9.50;6.60;;;;;;;;;;5069314;28;20025;-75
2022/04/20 05:25:16;;;;;;;8.98;6.68;;;;;;;;;;5068460;28;20035;-75
2022/04/20 05:27:42;;;;;;;9.35;6.00;;;;;;;;;;5074155;28;20139;-74
2022/04/20 05:30:09;;;;;;;8.63;6.05;;;;;;;;;;5066355;28;20029;-75
2022/04/20 05:32:35;;;;;;;9.32;6.53;;;;;;;;;;5068730;28;20181;-75
2022/04/20 05:35:01;;;;;;;8.45;5.90;;;;;;;;;;5073153;28;20035;-75
2022/04/20 05:42:59;;;;;;;11.00;7.03;;;;;;;;;;5070057;28;20501;-75
2022/04/20 05:45:25;;;;;;;13.35;7.47;;;;;;;;;;5067147;28;20074;-75
2022/04/20 05:47:51;;;;;;;13.10;7.95;;;;;;;;;;5072761;28;20029;-74
2022/04/20 05:50:17;;;;;;;15.90;9.13;;;;;;;;;;5072554;28;20028;-75
2022/04/20 05:52:43;;;;;;;14.88;7.75;;;;;;;;;;5069208;28;20032;-74
2022/04/20 05:55:09;;;;;;;9.27;6.80;;;;;;;;;;5069458;28;20039;-75
2022/04/20 05:57:36;;;;;;;10.25;6.82;;;;;;;;;;5066837;28;20028;-75
2022/04/20 06:00:03;;;;;;;12.80;8.35;;;;;;;;;;5067590;28;20071;-75
2022/04/20 06:02:33;;;;;;;13.55;8.38;;;;;;;;;;5068344;28;20028;-76
2022/04/20 06:04:59;;;;;;;11.80;7.63;;;;;;;;;;5070031;28;20038;-75
2022/04/20 06:07:25;;;;;;;11.45;6.65;;;;;;;;;;5069342;28;20090;-75
2022/04/20 06:09:51;;;;;;;12.23;7.85;;;;;;;;;;5069975;28;20915;-75
2022/04/20 06:12:19;;;;;;;14.68;7.75;;;;;;;;;;5069705;28;20378;-75
2022/04/20 06:14:46;;;;;;;12.60;7.00;;;;;;;;;;5068830;28;20051;-75
2022/04/20 06:17:12;;;;;;;14.10;7.63;;;;;;;;;;5063382;28;20044;-75
2022/04/20 06:19:38;;;;;;;12.40;7.50;;;;;;;;;;5069416;28;20069;-75
2022/04/20 06:22:05;;;;;;;14.68;6.95;;;;;;;;;;5063919;28;21041;-75
2022/04/20 06:24:31;;;;;;;14.88;7.82;;;;;;;;;;5069107;28;20020;-77
2022/04/20 06:26:57;;;;;;;10.52;7.68;;;;;;;;;;5065240;28;20033;-76
2022/04/20 06:29:24;;;;;;;9.45;7.18;;;;;;;;;;5067362;28;20083;-76
2022/04/20 06:31:51;;;;;;;12.95;6.93;;;;;;;;;;5071195;28;20402;-75
2022/04/20 06:34:17;;;;;;;9.00;6.60;;;;;;;;;;5064346;28;20028;-75
2022/04/20 06:36:44;;;;;;;15.13;7.28;;;;;;;;;;5069411;28;20402;-76
2022/04/20 06:39:10;;;;;;;11.98;6.90;;;;;;;;;;5069436;28;20032;-75
2022/04/20 06:41:36;;;;;;;11.20;7.97;;;;;;;;;;5069364;28;20474;-76
2022/04/20 06:44:02;;;;;;;10.27;7.30;;;;;;;;;;5062758;28;20885;-75
2022/04/20 06:46:29;;;;;;;10.35;7.55;;;;;;;;;;5063173;28;20021;-75
2022/04/20 06:48:55;;;;;;;11.45;7.85;;;;;;;;;;5065906;28;20516;-77
2022/04/20 06:51:22;;;;;;;14.68;7.45;;;;;;;;;;5065191;28;20529;-73
2022/04/20 06:59:19;;;;;;;11.65;8.27;;;;;;;;;;5068168;28;20039;-73
2022/04/20 07:01:45;;;;;;;12.65;7.38;;;;;;;;;;5066399;28;20475;-73
2022/04/20 07:04:11;;;;;;;9.55;7.47;;;;;;;;;;5060867;28;20462;-73
2022/04/20 07:06:37;;;;;;;16.40;8.50;;;;;;;;;;5058817;28;20738;-73
2022/04/20 07:09:03;;;;;;;14.15;8.02;;;;;;;;;;5060059;28;20039;-74
2022/04/20 07:11:29;;;;;;;13.20;9.20;;;;;;;;;;5075358;28;20411;-75
2022/04/20 07:13:56;;;;;;;11.52;8.15;;;;;;;;;;5053167;28;20359;-74
2022/04/20 07:16:22;;;;;;;14.20;8.25;;;;;;;;;;5057756;28;20024;-74
2022/04/20 07:18:48;;;;;;;10.90;8.05;;;;;;;;;;5063309;28;20028;-74
2022/04/20 07:21:15;;;;;;;16.85;8.00;;;;;;;;;;5056381;28;20029;-76
2022/04/20 07:23:41;;;;;;;13.43;8.52;;;;;;;;;;5059016;28;20027;-74
2022/04/20 07:26:07;;;;;;;11.20;7.88;;;;;;;;;;5060408;28;20457;-74
2022/04/20 07:28:34;;;;;;;15.27;9.52;;;;;;;;;;5063622;28;20081;-74
2022/04/20 07:31:01;;;;;;;13.73;8.63;;;;;;;;;;5071548;28;20032;-75
2022/04/20 07:33:28;;;;;;;11.65;7.90;;;;;;;;;;5073278;28;20100;-75
2022/04/20 07:35:54;;;;;;;14.02;8.73;;;;;;;;;;5076414;28;20027;-75
2022/04/20 07:38:24;;;;;;;14.32;8.07;;;;;;;;;;5074873;28;20051;-75
2022/04/20 07:40:50;;;;;;;22.25;9.35;;;;;;;;;;5069997;28;20486;-74
2022/04/20 07:43:16;;;;;;;23.67;9.10;;;;;;;;;;5070128;28;20036;-76
2022/04/20 07:45:42;;;;;;;15.73;9.20;;;;;;;;;;5071339;28;20036;-74
2022/04/20 07:48:08;;;;;;;19.40;9.63;;;;;;;;;;5072086;28;20103;-76
2022/04/20 07:50:35;;;;;;;14.00;9.40;;;;;;;;;;5072712;28;20544;-74
2022/04/20 07:53:03;;;;;;;15.95;9.65;;;;;;;;;;5070435;28;20046;-75
2022/04/20 07:55:31;;;;;;;13.65;9.18;;;;;;;;;;5070005;28;20465;-76
2022/04/20 07:57:58;;;;;;;17.40;9.60;;;;;;;;;;5074596;28;20038;-75
2022/04/20 08:00:24;;;;;;;17.50;9.15;;;;;;;;;;5075832;28;20027;-75
2022/04/20 08:02:51;;;;;;;21.13;9.77;;;;;;;;;;5072379;28;20121;-75
2022/04/20 08:05:19;;;;;;;11.48;8.95;;;;;;;;;;5069528;28;20406;-74
2022/04/20 08:07:45;;;;;;;14.88;8.93;;;;;;;;;;5072220;28;20462;-75
2022/04/20 08:10:12;;;;;;;15.93;7.85;;;;;;;;;;5075335;28;20112;-73
2022/04/20 08:12:38;;;;;;;14.68;7.35;;;;;;;;;;5071339;28;20040;-74
2022/04/20 08:15:05;;;;;;;12.27;6.70;;;;;;;;;;5073674;28;20179;-72
2022/04/20 08:17:32;;;;;;;11.68;7.10;;;;;;;;;;5060186;28;20482;-73
2022/04/20 08:19:58;;;;;;;11.75;8.13;;;;;;;;;;5067636;28;20031;-73
2022/04/20 08:22:25;;;;;;;15.27;7.20;;;;;;;;;;5072391;28;20132;-76
2022/04/20 08:24:51;;;;;;;12.10;8.32;;;;;;;;;;5071949;28;20031;-74
2022/04/20 08:27:19;;;;;;;16.55;7.50;;;;;;;;;;5073232;28;20555;-75
2022/04/20 08:29:46;;;;;;;13.82;7.80;;;;;;;;;;5066708;28;20119;-75
2022/04/20 08:32:12;;;;;;;12.38;6.95;;;;;;;;;;5087380;28;20397;-75
2022/04/20 08:34:38;;;;;;;15.68;7.47;;;;;;;;;;5072865;28;20055;-77
2022/04/20 08:37:04;;;;;;;16.73;7.45;;;;;;;;;;5070782;28;20021;-74
2022/04/20 08:39:30;;;;;;;15.00;7.00;;;;;;;;;;5074681;28;20440;-72
2022/04/20 08:41:57;;;;;;;15.10;6.72;;;;;;;;;;5061846;28;20051;-75
2022/04/20 08:44:29;;;;;;;14.45;6.18;;;;;;;;;;5060153;28;20131;-73
2022/04/20 08:46:55;;;;;;;13.57;6.00;;;;;;;;;;5073678;28;20747;-73
2022/04/20 08:49:22;;;;;;;10.52;5.57;;;;;;;;;;5070978;28;20117;-75
2022/04/20 08:54:37;;;;;;;20.52;6.05;;;;;;;;;;5075291;28;20097;-74
2022/04/20 08:57:15;;;;;;;12.43;4.50;;;;;;;;;;5077247;28;20036;-75
2022/04/20 08:59:43;;;;;;;10.38;4.85;;;;;;;;;;5073711;28;20032;-74
2022/04/20 09:02:10;;;;;;;7.20;4.63;;;;;;;;;;5074824;28;20186;-74
2022/04/20 09:04:37;;;;;;;5.90;4.30;;;;;;;;;;5073867;28;20032;-74
2022/04/20 09:07:05;;;;;;;12.75;4.35;;;;;;;;;;5066605;28;20031;-73
2022/04/20 09:09:31;;;;;;;13.15;5.10;;;;;;;;;;5059750;28;20438;-75
2022/04/20 09:11:59;;;;;;;12.73;5.57;;;;;;;;;;5060474;28;20063;-75
2022/04/20 09:14:25;;;;;;;7.30;4.57;;;;;;;;;;5063061;28;20114;-76
2022/04/20 09:16:57;;;;;;;10.50;3.65;;;;;;;;;;5057552;28;20032;-75
2022/04/20 09:19:27;;;;;;;7.07;3.58;;;;;;;;;;5061268;28;20406;-77
2022/04/20 09:21:53;;;;;;;6.65;4.88;;;;;;;;;;5061611;28;20228;-74
2022/04/20 09:24:20;;;;;;;8.13;4.45;;;;;;;;;;5057156;28;20036;-77
2022/04/20 09:26:57;;;;;;;9.93;5.18;;;;;;;;;;5058429;28;20029;-75
2022/04/20 09:29:23;;;;;;;7.55;4.03;;;;;;;;;;5061673;28;20037;-76
2022/04/20 09:31:51;;;;;;;9.98;4.47;;;;;;;;;;5056883;28;20067;-76
2022/04/20 09:34:26;;;;;;;10.85;4.25;;;;;;;;;;5059199;28;20157;-75
2022/04/20 09:36:54;;;;;;;;;;;;;;;;;;5067883;28;20111;-75
2022/04/20 09:39:21;;;;;;;5.60;2.95;;;;;;;;;;5067801;28;20439;-75
2022/04/20 09:42:00;;;;;;;3.22;2.22;;;;;;;;;;5076525;28;20082;-73
2022/04/20 09:44:27;;;;;;;5.32;2.85;;;;;;;;;;5075771;28;20024;-76
2022/04/20 09:50:00;;;;;;;4.43;2.55;;;;;;;;;;5080153;28;20035;-77
2022/04/20 09:52:41;;;;;;;4.70;3.13;;;;;;;;;;5075956;28;20361;-76
2022/04/20 09:55:07;;;;;;;7.18;2.78;;;;;;;;;;5078018;28;20040;-76
2022/04/20 09:57:37;;;;;;;7.22;2.75;;;;;;;;;;5073680;28;20047;-78
2022/04/20 10:00:12;;;;;;;11.38;2.85;;;;;;;;;;5074347;28;20423;-76
2022/04/20 10:02:48;;;;;;;5.18;2.80;;;;;;;;;;5072183;28;20048;-77
2022/04/20 10:05:18;;;;;;;13.23;3.08;;;;;;;;;;5078014;28;20032;-77
2022/04/20 10:07:44;;;;;;;4.80;2.40;;;;;;;;;;5073843;28;20029;-76
2022/04/20 10:10:10;;;;;;;6.80;2.28;;;;;;;;;;5077548;28;20024;-77
2022/04/20 10:12:39;;;;;;;10.00;2.90;;;;;;;;;;5079778;28;20443;-76
2022/04/20 10:17:53;;;;;;;4.80;2.08;;;;;;;;;;5074468;28;20084;-76
2022/04/20 10:20:20;;;;;;;6.85;2.85;;;;;;;;;;5075297;28;20035;-78
2022/04/20 10:22:47;;;;;;;4.25;2.28;;;;;;;;;;5076521;28;20027;-77
2022/04/20 10:25:14;;;;;;;5.75;2.78;;;;;;;;;;5072141;28;20043;-78
2022/04/20 10:27:58;;;;;;;3.50;2.30;;;;;;;;;;5075144;28;20043;-76
2022/04/20 10:30:43;;;;;;;3.47;1.95;;;;;;;;;;5075018;28;20028;-76
2022/04/20 10:33:10;;;;;;;2.53;1.90;;;;;;;;;;5079470;28;20036;-77
2022/04/20 10:35:58;;;;;;;6.40;2.03;;;;;;;;;;5078686;28;20025;-77
2022/04/20 10:38:25;;;;;;;2.58;1.70;;;;;;;;;;5076455;28;20051;-76
2022/04/20 10:41:10;;;;;;;5.97;3.42;;;;;;;;;;5073971;28;20020;-75
2022/04/20 10:43:40;;;;;;;5.23;2.07;;;;;;;;;;5074296;28;20020;-76
2022/04/20 10:46:06;;;;;;;4.30;2.15;;;;;;;;;;5066508;28;20020;-77
2022/04/20 10:48:52;;;;;;;4.55;2.05;;;;;;;;;;5075105;28;20032;-77
2022/04/20 10:51:46;;;;;;;8.90;2.60;;;;;;;;;;5077517;28;20036;-77
2022/04/20 10:54:18;;;;;;;4.80;2.20;;;;;;;;;;5071052;28;20063;-75
2022/04/20 10:56:59;;;;;;;4.40;1.73;;;;;;;;;;5074830;28;20020;-74
2022/04/20 10:59:26;;;;;;;5.13;1.90;;;;;;;;;;5077031;28;20502;-74
2022/04/20 11:02:02;;;;;;;6.75;2.13;;;;;;;;;;5075540;28;20502;-75
2022/04/20 11:04:34;;;;;;;5.13;2.15;;;;;;;;;;5078670;28;20025;-76
2022/04/20 11:07:01;;;;;;;4.20;2.00;;;;;;;;;;5076561;28;20024;-74
2022/04/20 11:09:45;;;;;;;2.22;1.70;;;;;;;;;;5070791;28;20035;-74
2022/04/20 11:21:07;;;;;;;2.67;2.08;;;;;;;;;;5065340;28;20031;-75
2022/04/20 11:23:57;;;;;;;3.28;2.33;;;;;;;;;;5073545;28;20028;-75
2022/04/20 11:26:39;;;;;;;4.00;2.13;;;;;;;;;;5071957;28;20016;-75
2022/04/20 11:29:15;;;;;;;2.92;2.00;;;;;;;;;;5072389;28;20541;-76
2022/04/20 11:31:42;;;;;;;4.00;2.90;;;;;;;;;;5075209;28;20494;-76
2022/04/20 11:34:09;;;;;;;3.17;1.90;;;;;;;;;;5076784;28;20044;-77
2022/04/20 11:36:41;;;;;;;4.20;2.17;;;;;;;;;;5075241;28;20468;-75
2022/04/20 11:39:07;;;;;;;3.30;2.00;;;;;;;;;;5077854;28;20027;-76
2022/04/20 11:41:35;;;;;;;3.10;1.80;;;;;;;;;;5073966;28;20149;-76
2022/04/20 11:44:02;;;;;;;3.28;1.80;;;;;;;;;;5073686;28;20020;-76
2022/04/20 11:46:28;;;;;;;2.53;1.90;;;;;;;;;;5072428;28;20381;-75
2022/04/20 11:48:57;;;;;;;3.97;1.90;;;;;;;;;;5066798;28;20025;-76
2022/04/20 11:51:25;;;;;;;4.45;2.00;;;;;;;;;;5062147;28;20800;-77
2022/04/20 11:53:52;;;;;;;2.80;1.90;;;;;;;;;;5069107;28;20066;-75
2022/04/20 11:56:31;;;;;;;3.15;2.00;;;;;;;;;;5061488;28;20029;-74
2022/04/20 11:58:58;;;;;;;2.75;2.20;;;;;;;;;;5060831;28;20029;-75
2022/04/20 12:01:28;;;;;;;2.65;2.35;;;;;;;;;;5060867;28;20036;-76
2022/04/20 12:03:55;;;;;;;3.60;2.40;;;;;;;;;;5067980;28;20098;-76
2022/04/20 12:06:24;;;;;;;2.63;1.90;;;;;;;;;;5063556;28;20059;-77
2022/04/20 12:08:53;;;;;;;4.32;2.72;;;;;;;;;;5075149;28;20108;-76
2022/04/20 12:11:20;;;;;;;3.50;1.90;;;;;;;;;;5070723;28;20040;-77
2022/04/20 12:13:46;;;;;;;3.83;2.00;;;;;;;;;;5066295;28;20426;-75
2022/04/20 12:16:13;;;;;;;2.60;1.77;;;;;;;;;;5069994;28;20114;-75
2022/04/20 12:18:46;;;;;;;2.00;1.70;;;;;;;;;;5080904;28;20024;-74
2022/04/20 12:21:31;;;;;;;2.15;1.95;;;;;;;;;;5069052;28;20033;-76
2022/04/20 12:23:57;;;;;;;4.35;1.98;;;;;;;;;;5060137;28;20135;-77
2022/04/20 12:26:29;;;;;;;3.40;2.08;;;;;;;;;;5065977;28;20025;-76
2022/04/20 12:29:03;;;;;;;4.25;2.05;;;;;;;;;;5065001;28;20499;-77
2022/04/20 12:31:30;;;;;;;5.28;2.15;;;;;;;;;;5059231;28;20028;-76
2022/04/20 12:34:03;;;;;;;4.75;1.95;;;;;;;;;;5062178;28;20047;-78
2022/04/20 12:36:31;;;;;;;2.42;2.17;;;;;;;;;;5063354;28;20205;-76
2022/04/20 12:38:57;;;;;;;4.28;2.20;;;;;;;;;;5061486;28;20021;-76
2022/04/20 12:41:37;;;;;;;2.80;2.20;;;;;;;;;;5061728;28;20051;-75
2022/04/20 12:44:23;;;;;;;4.22;2.85;;;;;;;;;;5060280;28;20490;-76
2022/04/20 12:46:49;;;;;;;3.28;1.95;;;;;;;;;;5058729;28;20031;-75
2022/04/20 12:49:25;;;;;;;4.15;2.28;;;;;;;;;;5073081;28;20648;-76
2022/04/20 12:51:51;;;;;;;3.92;2.10;;;;;;;;;;5075267;28;20163;-76
2022/04/20 12:54:24;;;;;;;3.28;1.88;;;;;;;;;;5073390;28;20074;-77
2022/04/20 13:02:20;;;;;;;5.53;2.08;;;;;;;;;;5063957;28;20169;-77
2022/04/20 13:04:50;;;;;;;3.60;2.10;;;;;;;;;;5070234;28;20077;-78
2022/04/20 13:07:16;;;;;;;3.80;2.40;;;;;;;;;;5059736;28;20074;-77
2022/04/20 13:09:42;;;;;;;3.13;2.08;;;;;;;;;;5066102;28;20112;-77
2022/04/20 13:12:08;;;;;;;6.22;2.10;;;;;;;;;;5061843;28;20033;-77
2022/04/20 13:14:36;;;;;;;3.33;2.15;;;;;;;;;;5059097;28;20025;-75
2022/04/20 13:17:02;;;;;;;5.38;2.22;;;;;;;;;;5062601;28;20021;-76
2022/04/20 13:19:28;;;;;;;3.05;1.92;;;;;;;;;;5069519;28;20739;-76
2022/04/20 13:21:54;;;;;;;4.43;3.25;;;;;;;;;;5064680;28;20024;-77
2022/04/20 13:29:50;;;;;;;3.40;2.25;;;;;;;;;;5060985;28;19971;-75
2022/04/20 13:32:16;;;;;;;4.07;2.10;;;;;;;;;;5069647;28;20028;-79
2022/04/20 13:34:45;;;;;;;4.85;2.28;;;;;;;;;;5068660;28;20101;-78
2022/04/20 13:37:13;;;;;;;5.28;2.30;;;;;;;;;;5070763;28;20541;-79
2022/04/20 13:39:39;;;;;;;3.50;2.13;;;;;;;;;;5076186;28;20097;-78
2022/04/20 13:42:05;;;;;;;3.38;2.20;;;;;;;;;;5069593;28;20028;-80
2022/04/20 13:44:32;;;;;;;4.85;2.17;;;;;;;;;;5065985;28;20533;-79
2022/04/20 13:46:58;;;;;;;3.78;2.17;;;;;;;;;;5062973;28;20036;-77
2022/04/20 13:49:25;;;;;;;4.57;2.22;;;;;;;;;;5061456;28;20047;-77
2022/04/20 13:51:51;;;;;;;3.92;2.30;;;;;;;;;;5063539;28;21448;-79
2022/04/20 13:54:17;;;;;;;5.13;2.85;;;;;;;;;;5069165;28;20063;-76
2022/04/20 13:56:43;;;;;;;4.05;2.13;;;;;;;;;;5065706;28;20029;-76
2022/04/20 13:59:10;;;;;;;5.30;2.58;;;;;;;;;;5069710;28;20052;-76
2022/04/20 14:01:36;;;;;;;3.75;2.20;;;;;;;;;;5067861;28;20665;-76
2022/04/20 14:04:02;;;;;;;3.70;2.30;;;;;;;;;;5072252;28;20082;-76
2022/04/20 14:06:28;;;;;;;4.70;2.20;;;;;;;;;;5070879;28;20047;-78
2022/04/20 14:08:54;;;;;;;5.60;2.55;;;;;;;;;;5059464;28;20477;-77
2022/04/20 14:11:20;;;;;;;4.93;2.53;;;;;;;;;;5064664;28;20024;-77
2022/04/20 14:13:46;;;;;;;4.55;2.58;;;;;;;;;;5064009;28;20058;-77
2022/04/20 14:16:12;;;;;;;7.03;2.50;;;;;;;;;;5066328;28;20032;-77
2022/04/20 14:18:38;;;;;;;3.70;2.22;;;;;;;;;;5078552;28;20028;-79
2022/04/20 14:21:05;;;;;;;5.75;2.60;;;;;;;;;;5066571;28;20093;-77
2022/04/20 14:23:31;;;;;;;4.28;2.30;;;;;;;;;;5070535;28;20579;-77
2022/04/20 14:34:11;;;;;;;;;;;;;;;;;;5071249;28;20041;-77
2022/04/20 14:36:38;;;;;;;5.40;2.72;;;;;;;;;;5066808;28;19916;-76
2022/04/20 14:39:05;;;;;;;6.10;2.65;;;;;;;;;;5075072;28;20055;-76
2022/04/20 14:41:31;;;;;;;5.53;2.60;;;;;;;;;;5071643;28;20031;-77
2022/04/20 14:43:57;;;;;;;4.95;2.50;;;;;;;;;;5068867;28;20029;-76
2022/04/20 14:46:23;;;;;;;6.45;2.58;;;;;;;;;;5072495;28;20035;-76
2022/04/20 14:48:50;;;;;;;6.72;2.65;;;;;;;;;;5069396;28;20063;-76
2022/04/20 14:51:21;;;;;;;6.75;2.80;;;;;;;;;;5066747;28;20025;-77
2022/04/20 14:53:48;;;;;;;5.47;2.70;;;;;;;;;;5073195;28;20112;-75
2022/04/20 14:56:14;;;;;;;7.32;2.78;;;;;;;;;;5064955;28;20131;-74
2022/04/20 14:58:40;;;;;;;5.00;2.60;;;;;;;;;;5058892;28;20127;-75
2022/04/20 15:01:06;;;;;;;5.65;2.80;;;;;;;;;;5064443;28;20393;-76
2022/04/20 15:03:33;;;;;;;6.68;3.15;;;;;;;;;;5063265;28;20093;-75
2022/04/20 15:05:59;;;;;;;6.15;2.97;;;;;;;;;;5067682;28;20040;-77
2022/04/20 15:08:25;;;;;;;4.85;2.85;;;;;;;;;;5066383;28;20102;-75
2022/04/20 15:10:51;;;;;;;4.93;2.83;;;;;;;;;;5071418;28;20192;-76
2022/04/20 15:13:17;;;;;;;7.18;3.05;;;;;;;;;;5069827;28;20141;-79
2022/04/20 15:15:44;;;;;;;5.60;3.13;;;;;;;;;;5071712;28;20039;-79
2022/04/20 15:18:10;;;;;;;9.45;3.50;;;;;;;;;;5069571;28;20125;-81
2022/04/20 15:20:36;;;;;;;5.88;2.92;;;;;;;;;;5074150;28;20473;-82
2022/04/20 15:23:02;;;;;;;5.80;3.15;;;;;;;;;;5056775;28;20039;-79
2022/04/20 15:25:33;;;;;;;9.13;3.90;;;;;;;;;;5061044;28;20032;-79
2022/04/20 15:28:01;;;;;;;6.53;3.47;;;;;;;;;;5079650;28;20033;-80
2022/04/20 15:30:33;;;;;;;5.75;3.30;;;;;;;;;;5061756;28;20031;-77
2022/04/20 15:32:59;;;;;;;7.45;3.70;;;;;;;;;;5061439;28;20028;-75
2022/04/20 15:35:25;;;;;;;6.18;3.90;;;;;;;;;;5060472;28;20067;-77
2022/04/20 15:37:52;;;;;;;6.53;3.60;;;;;;;;;;5069920;28;20054;-75